sensor_id;sensor_type;location;lat;lon;timestamp;P1;durP1;ratioP1;P2;durP2;ratioP2
63874;SDS011;51595;24.180;-110.296;2022-10-16T00:01:12;4.90;;;1.65;;
63874;SDS011;51595;24.180;-110.296;2022-10-16T00:03:40;9.30;;;1.73;;
63874;SDS011;51595;24.180;-110.296;2022-10-16T00:06:08;6.68;;;2.30;;
63874;SDS011;51595;24.180;-110.296;2022-10-16T00:08:36;5.10;;;2.13;;
63874;SDS011;51595;24.180;-110.296;2022-10-16T00:11:04;3.67;;;1.50;;
63874;SDS011;51595;24.180;-110.296;2022-10-16T00:13:33;7.45;;;2.65;;
63874;SDS011;51595;24.180;-110.296;2022-10-16T00:16:01;5.03;;;2.03;;
63874;SDS011;51595;24.180;-110.296;2022-10-16T00:18:28;4.70;;;1.80;;
63874;SDS011;51595;24.180;-110.296;2022-10-16T00:20:55;6.43;;;1.90;;
63874;SDS011;51595;24.180;-110.296;2022-10-16T00:23:28;4.65;;;1.80;;
63874;SDS011;51595;24.180;-110.296;2022-10-16T00:25:59;5.95;;;1.90;;
63874;SDS011;51595;24.180;-110.296;2022-10-16T00:28:31;6.95;;;1.58;;
63874;SDS011;51595;24.180;-110.296;2022-10-16T00:30:58;5.80;;;1.77;;
63874;SDS011;51595;24.180;-110.296;2022-10-16T00:33:28;4.15;;;2.10;;
63874;SDS011;51595;24.180;-110.296;2022-10-16T00:35:57;6.80;;;2.00;;
63874;SDS011;51595;24.180;-110.296;2022-10-16T00:38:24;6.68;;;1.70;;
63874;SDS011;51595;24.180;-110.296;2022-10-16T00:40:50;6.18;;;2.28;;
63874;SDS011;51595;24.180;-110.296;2022-10-16T00:46:17;6.25;;;1.88;;
63874;SDS011;51595;24.180;-110.296;2022-10-16T00:51:47;8.30;;;2.08;;
63874;SDS011;51595;24.180;-110.296;2022-10-16T00:54:26;5.82;;;1.80;;
63874;SDS011;51595;24.180;-110.296;2022-10-16T00:56:55;7.30;;;1.88;;
63874;SDS011;51595;24.180;-110.296;2022-10-16T00:59:26;5.53;;;1.83;;
63874;SDS011;51595;24.180;-110.296;2022-10-16T01:01:58;6.88;;;2.30;;
63874;SDS011;51595;24.180;-110.296;2022-10-16T01:04:25;8.55;;;2.88;;
63874;SDS011;51595;24.180;-110.296;2022-10-16T01:10:03;6.22;;;1.67;;
63874;SDS011;51595;24.180;-110.296;2022-10-16T01:12:45;10.85;;;2.13;;
63874;SDS011;51595;24.180;-110.296;2022-10-16T01:20:59;6.50;;;1.90;;
63874;SDS011;51595;24.180;-110.296;2022-10-16T01:28:38;8.40;;;1.77;;
63874;SDS011;51595;24.180;-110.296;2022-10-16T01:31:07;5.07;;;1.80;;
63874;SDS011;51595;24.180;-110.296;2022-10-16T01:33:42;3.92;;;1.60;;
63874;SDS011;51595;24.180;-110.296;2022-10-16T01:36:16;6.13;;;1.65;;
63874;SDS011;51595;24.180;-110.296;2022-10-16T01:38:47;9.65;;;2.05;;
63874;SDS011;51595;24.180;-110.296;2022-10-16T01:41:20;7.35;;;2.08;;
63874;SDS011;51595;24.180;-110.296;2022-10-16T01:46:35;5.57;;;2.05;;
63874;SDS011;51595;24.180;-110.296;2022-10-16T01:49:06;4.40;;;2.17;;
63874;SDS011;51595;24.180;-110.296;2022-10-16T01:51:35;3.75;;;1.63;;
63874;SDS011;51595;24.180;-110.296;2022-10-16T01:54:04;4.30;;;1.73;;
63874;SDS011;51595;24.180;-110.296;2022-10-16T01:56:33;3.33;;;1.48;;
63874;SDS011;51595;24.180;-110.296;2022-10-16T01:59:06;8.95;;;1.75;;
63874;SDS011;51595;24.180;-110.296;2022-10-16T02:01:38;5.72;;;2.00;;
63874;SDS011;51595;24.180;-110.296;2022-10-16T02:04:19;7.47;;;1.90;;
63874;SDS011;51595;24.180;-110.296;2022-10-16T02:06:49;8.32;;;1.95;;
63874;SDS011;51595;24.180;-110.296;2022-10-16T02:09:16;7.57;;;1.95;;
63874;SDS011;51595;24.180;-110.296;2022-10-16T02:11:43;7.00;;;1.90;;
63874;SDS011;51595;24.180;-110.296;2022-10-16T02:14:10;6.53;;;1.98;;
63874;SDS011;51595;24.180;-110.296;2022-10-16T02:16:37;7.38;;;1.98;;
63874;SDS011;51595;24.180;-110.296;2022-10-16T02:19:06;9.02;;;2.00;;
63874;SDS011;51595;24.180;-110.296;2022-10-16T02:21:42;4.88;;;1.83;;
63874;SDS011;51595;24.180;-110.296;2022-10-16T02:24:20;7.43;;;2.22;;
63874;SDS011;51595;24.180;-110.296;2022-10-16T02:29:40;6.82;;;2.30;;
63874;SDS011;51595;24.180;-110.296;2022-10-16T02:32:10;7.63;;;2.30;;
63874;SDS011;51595;24.180;-110.296;2022-10-16T02:34:40;11.32;;;2.13;;
63874;SDS011;51595;24.180;-110.296;2022-10-16T02:37:07;11.68;;;2.40;;
63874;SDS011;51595;24.180;-110.296;2022-10-16T02:39:35;7.53;;;2.22;;
63874;SDS011;51595;24.180;-110.296;2022-10-16T02:42:03;10.75;;;2.38;;
63874;SDS011;51595;24.180;-110.296;2022-10-16T02:44:30;9.13;;;2.70;;
63874;SDS011;51595;24.180;-110.296;2022-10-16T02:46:56;6.65;;;2.30;;
63874;SDS011;51595;24.180;-110.296;2022-10-16T02:49:22;9.93;;;2.30;;
63874;SDS011;51595;24.180;-110.296;2022-10-16T02:51:49;5.88;;;2.30;;
63874;SDS011;51595;24.180;-110.296;2022-10-16T02:54:15;12.27;;;2.53;;
63874;SDS011;51595;24.180;-110.296;2022-10-16T02:56:42;9.93;;;2.03;;
63874;SDS011;51595;24.180;-110.296;2022-10-16T02:59:08;10.20;;;2.40;;
63874;SDS011;51595;24.180;-110.296;2022-10-16T03:01:34;5.97;;;1.88;;
63874;SDS011;51595;24.180;-110.296;2022-10-16T03:04:01;8.65;;;1.80;;
63874;SDS011;51595;24.180;-110.296;2022-10-16T03:06:27;12.43;;;2.00;;
63874;SDS011;51595;24.180;-110.296;2022-10-16T03:08:54;6.85;;;1.98;;
63874;SDS011;51595;24.180;-110.296;2022-10-16T03:11:20;9.68;;;1.95;;
63874;SDS011;51595;24.180;-110.296;2022-10-16T03:13:47;8.90;;;2.00;;
63874;SDS011;51595;24.180;-110.296;2022-10-16T03:16:13;8.02;;;2.10;;
63874;SDS011;51595;24.180;-110.296;2022-10-16T03:18:39;7.03;;;2.00;;
63874;SDS011;51595;24.180;-110.296;2022-10-16T03:21:06;9.10;;;2.28;;
63874;SDS011;51595;24.180;-110.296;2022-10-16T03:23:32;5.68;;;2.25;;
63874;SDS011;51595;24.180;-110.296;2022-10-16T03:25:59;11.63;;;2.65;;
63874;SDS011;51595;24.180;-110.296;2022-10-16T03:28:25;9.52;;;2.05;;
63874;SDS011;51595;24.180;-110.296;2022-10-16T03:30:52;8.20;;;2.05;;
63874;SDS011;51595;24.180;-110.296;2022-10-16T03:33:18;7.65;;;2.45;;
63874;SDS011;51595;24.180;-110.296;2022-10-16T03:35:50;10.43;;;2.58;;
63874;SDS011;51595;24.180;-110.296;2022-10-16T03:38:18;10.35;;;2.60;;
63874;SDS011;51595;24.180;-110.296;2022-10-16T03:40:45;9.70;;;2.50;;
63874;SDS011;51595;24.180;-110.296;2022-10-16T03:43:12;9.75;;;2.30;;
63874;SDS011;51595;24.180;-110.296;2022-10-16T03:45:38;7.10;;;2.10;;
63874;SDS011;51595;24.180;-110.296;2022-10-16T03:48:05;7.15;;;1.98;;
63874;SDS011;51595;24.180;-110.296;2022-10-16T03:50:31;15.90;;;2.72;;
63874;SDS011;51595;24.180;-110.296;2022-10-16T03:52:58;8.13;;;2.10;;
63874;SDS011;51595;24.180;-110.296;2022-10-16T03:55:24;7.25;;;2.00;;
63874;SDS011;51595;24.180;-110.296;2022-10-16T03:57:51;10.77;;;2.85;;
63874;SDS011;51595;24.180;-110.296;2022-10-16T04:00:17;8.48;;;2.63;;
63874;SDS011;51595;24.180;-110.296;2022-10-16T04:02:44;10.65;;;2.25;;
63874;SDS011;51595;24.180;-110.296;2022-10-16T04:05:10;7.47;;;2.10;;
63874;SDS011;51595;24.180;-110.296;2022-10-16T04:07:37;6.35;;;2.05;;
63874;SDS011;51595;24.180;-110.296;2022-10-16T04:10:03;12.80;;;2.47;;
63874;SDS011;51595;24.180;-110.296;2022-10-16T04:12:31;6.60;;;1.98;;
63874;SDS011;51595;24.180;-110.296;2022-10-16T04:14:57;12.70;;;2.83;;
63874;SDS011;51595;24.180;-110.296;2022-10-16T04:17:24;5.20;;;1.98;;
63874;SDS011;51595;24.180;-110.296;2022-10-16T04:19:50;10.55;;;2.50;;
63874;SDS011;51595;24.180;-110.296;2022-10-16T04:22:17;16.75;;;2.55;;
63874;SDS011;51595;24.180;-110.296;2022-10-16T04:24:44;16.90;;;2.60;;
63874;SDS011;51595;24.180;-110.296;2022-10-16T04:27:10;6.57;;;2.33;;
63874;SDS011;51595;24.180;-110.296;2022-10-16T04:29:36;13.55;;;2.35;;
63874;SDS011;51595;24.180;-110.296;2022-10-16T04:32:03;9.43;;;2.42;;
63874;SDS011;51595;24.180;-110.296;2022-10-16T04:34:29;7.03;;;2.47;;
63874;SDS011;51595;24.180;-110.296;2022-10-16T04:36:56;10.65;;;2.88;;
63874;SDS011;51595;24.180;-110.296;2022-10-16T04:39:22;9.75;;;2.10;;
63874;SDS011;51595;24.180;-110.296;2022-10-16T04:41:48;10.07;;;2.35;;
63874;SDS011;51595;24.180;-110.296;2022-10-16T04:44:15;17.58;;;3.33;;
63874;SDS011;51595;24.180;-110.296;2022-10-16T04:46:41;24.35;;;2.92;;
63874;SDS011;51595;24.180;-110.296;2022-10-16T04:49:09;11.50;;;2.58;;
63874;SDS011;51595;24.180;-110.296;2022-10-16T04:51:35;14.23;;;2.67;;
63874;SDS011;51595;24.180;-110.296;2022-10-16T04:54:02;7.30;;;2.35;;
63874;SDS011;51595;24.180;-110.296;2022-10-16T04:56:28;11.13;;;2.22;;
63874;SDS011;51595;24.180;-110.296;2022-10-16T04:58:55;12.38;;;3.10;;
63874;SDS011;51595;24.180;-110.296;2022-10-16T05:01:21;13.93;;;2.60;;
63874;SDS011;51595;24.180;-110.296;2022-10-16T05:03:48;22.67;;;3.95;;
63874;SDS011;51595;24.180;-110.296;2022-10-16T05:06:14;10.35;;;2.90;;
63874;SDS011;51595;24.180;-110.296;2022-10-16T05:08:40;9.32;;;2.35;;
63874;SDS011;51595;24.180;-110.296;2022-10-16T05:11:07;11.65;;;2.10;;
63874;SDS011;51595;24.180;-110.296;2022-10-16T05:13:33;9.90;;;2.42;;
63874;SDS011;51595;24.180;-110.296;2022-10-16T05:16:00;12.32;;;2.35;;
63874;SDS011;51595;24.180;-110.296;2022-10-16T05:18:28;10.55;;;2.30;;
63874;SDS011;51595;24.180;-110.296;2022-10-16T05:20:54;9.95;;;2.42;;
63874;SDS011;51595;24.180;-110.296;2022-10-16T05:23:20;15.25;;;3.28;;
63874;SDS011;51595;24.180;-110.296;2022-10-16T05:25:54;11.07;;;2.60;;
63874;SDS011;51595;24.180;-110.296;2022-10-16T05:28:27;14.93;;;3.58;;
63874;SDS011;51595;24.180;-110.296;2022-10-16T05:31:03;10.20;;;2.95;;
63874;SDS011;51595;24.180;-110.296;2022-10-16T05:33:31;7.60;;;2.10;;
63874;SDS011;51595;24.180;-110.296;2022-10-16T05:36:01;6.72;;;2.33;;
63874;SDS011;51595;24.180;-110.296;2022-10-16T05:38:33;12.93;;;2.70;;
63874;SDS011;51595;24.180;-110.296;2022-10-16T05:41:01;9.10;;;2.40;;
63874;SDS011;51595;24.180;-110.296;2022-10-16T05:43:28;7.78;;;2.28;;
63874;SDS011;51595;24.180;-110.296;2022-10-16T05:46:03;7.93;;;2.60;;
63874;SDS011;51595;24.180;-110.296;2022-10-16T05:48:31;8.88;;;2.30;;
63874;SDS011;51595;24.180;-110.296;2022-10-16T05:51:02;10.15;;;2.45;;
63874;SDS011;51595;24.180;-110.296;2022-10-16T05:53:31;14.93;;;2.03;;
63874;SDS011;51595;24.180;-110.296;2022-10-16T05:55:59;20.92;;;2.75;;
63874;SDS011;51595;24.180;-110.296;2022-10-16T05:58:30;7.43;;;2.08;;
63874;SDS011;51595;24.180;-110.296;2022-10-16T06:01:02;15.35;;;2.47;;
63874;SDS011;51595;24.180;-110.296;2022-10-16T06:03:35;10.35;;;2.20;;
63874;SDS011;51595;24.180;-110.296;2022-10-16T06:08:57;8.05;;;2.42;;
63874;SDS011;51595;24.180;-110.296;2022-10-16T06:11:26;5.53;;;1.90;;
63874;SDS011;51595;24.180;-110.296;2022-10-16T06:13:58;6.78;;;2.38;;
63874;SDS011;51595;24.180;-110.296;2022-10-16T06:16:35;7.93;;;2.30;;
63874;SDS011;51595;24.180;-110.296;2022-10-16T06:19:05;8.60;;;2.20;;
63874;SDS011;51595;24.180;-110.296;2022-10-16T06:21:36;7.70;;;2.20;;
63874;SDS011;51595;24.180;-110.296;2022-10-16T06:24:02;9.82;;;2.38;;
63874;SDS011;51595;24.180;-110.296;2022-10-16T06:26:30;5.47;;;2.08;;
63874;SDS011;51595;24.180;-110.296;2022-10-16T06:28:57;4.78;;;2.03;;
63874;SDS011;51595;24.180;-110.296;2022-10-16T06:31:25;14.52;;;2.35;;
63874;SDS011;51595;24.180;-110.296;2022-10-16T06:33:54;9.77;;;2.83;;
63874;SDS011;51595;24.180;-110.296;2022-10-16T06:36:21;9.20;;;2.50;;
63874;SDS011;51595;24.180;-110.296;2022-10-16T06:38:48;8.57;;;2.20;;
63874;SDS011;51595;24.180;-110.296;2022-10-16T06:41:19;5.35;;;2.10;;
63874;SDS011;51595;24.180;-110.296;2022-10-16T06:43:47;8.27;;;2.25;;
63874;SDS011;51595;24.180;-110.296;2022-10-16T06:46:18;10.90;;;2.55;;
63874;SDS011;51595;24.180;-110.296;2022-10-16T06:48:46;6.80;;;2.10;;
63874;SDS011;51595;24.180;-110.296;2022-10-16T06:51:20;4.70;;;2.42;;
63874;SDS011;51595;24.180;-110.296;2022-10-16T06:53:52;9.30;;;1.92;;
63874;SDS011;51595;24.180;-110.296;2022-10-16T06:56:22;12.73;;;2.72;;
63874;SDS011;51595;24.180;-110.296;2022-10-16T06:58:51;8.20;;;1.98;;
63874;SDS011;51595;24.180;-110.296;2022-10-16T07:01:19;13.40;;;2.13;;
63874;SDS011;51595;24.180;-110.296;2022-10-16T07:03:47;6.43;;;2.10;;
63874;SDS011;51595;24.180;-110.296;2022-10-16T07:06:15;8.38;;;2.15;;
63874;SDS011;51595;24.180;-110.296;2022-10-16T07:08:45;8.50;;;2.60;;
63874;SDS011;51595;24.180;-110.296;2022-10-16T07:11:13;10.50;;;2.58;;
63874;SDS011;51595;24.180;-110.296;2022-10-16T07:13:42;12.65;;;2.55;;
63874;SDS011;51595;24.180;-110.296;2022-10-16T07:16:13;10.88;;;2.42;;
63874;SDS011;51595;24.180;-110.296;2022-10-16T07:18:42;12.43;;;2.33;;
63874;SDS011;51595;24.180;-110.296;2022-10-16T07:21:20;14.43;;;3.17;;
63874;SDS011;51595;24.180;-110.296;2022-10-16T07:23:51;6.22;;;2.53;;
63874;SDS011;51595;24.180;-110.296;2022-10-16T07:26:22;6.95;;;2.40;;
63874;SDS011;51595;24.180;-110.296;2022-10-16T07:28:50;12.88;;;2.80;;
63874;SDS011;51595;24.180;-110.296;2022-10-16T07:31:17;8.10;;;2.63;;
63874;SDS011;51595;24.180;-110.296;2022-10-16T07:33:45;7.97;;;2.17;;
63874;SDS011;51595;24.180;-110.296;2022-10-16T07:36:13;11.05;;;2.35;;
63874;SDS011;51595;24.180;-110.296;2022-10-16T07:38:41;10.55;;;2.38;;
63874;SDS011;51595;24.180;-110.296;2022-10-16T07:41:09;14.43;;;2.50;;
63874;SDS011;51595;24.180;-110.296;2022-10-16T07:43:40;10.23;;;2.83;;
63874;SDS011;51595;24.180;-110.296;2022-10-16T07:46:10;7.95;;;2.47;;
63874;SDS011;51595;24.180;-110.296;2022-10-16T07:48:37;13.10;;;2.30;;
63874;SDS011;51595;24.180;-110.296;2022-10-16T07:51:04;10.50;;;2.50;;
63874;SDS011;51595;24.180;-110.296;2022-10-16T07:53:34;12.40;;;2.53;;
63874;SDS011;51595;24.180;-110.296;2022-10-16T07:56:02;9.88;;;2.67;;
63874;SDS011;51595;24.180;-110.296;2022-10-16T07:58:32;14.68;;;2.92;;
63874;SDS011;51595;24.180;-110.296;2022-10-16T08:01:05;17.85;;;2.70;;
63874;SDS011;51595;24.180;-110.296;2022-10-16T08:03:33;10.65;;;2.47;;
63874;SDS011;51595;24.180;-110.296;2022-10-16T08:06:00;6.40;;;2.00;;
63874;SDS011;51595;24.180;-110.296;2022-10-16T08:08:27;6.03;;;2.22;;
63874;SDS011;51595;24.180;-110.296;2022-10-16T08:10:54;10.70;;;2.67;;
63874;SDS011;51595;24.180;-110.296;2022-10-16T08:13:20;12.00;;;2.42;;
63874;SDS011;51595;24.180;-110.296;2022-10-16T08:15:47;13.77;;;2.72;;
63874;SDS011;51595;24.180;-110.296;2022-10-16T08:18:14;7.47;;;2.17;;
63874;SDS011;51595;24.180;-110.296;2022-10-16T08:20:41;12.77;;;2.53;;
63874;SDS011;51595;24.180;-110.296;2022-10-16T08:23:11;6.07;;;2.47;;
63874;SDS011;51595;24.180;-110.296;2022-10-16T08:25:38;12.57;;;2.40;;
63874;SDS011;51595;24.180;-110.296;2022-10-16T08:28:06;8.93;;;2.50;;
63874;SDS011;51595;24.180;-110.296;2022-10-16T08:30:34;15.23;;;2.65;;
63874;SDS011;51595;24.180;-110.296;2022-10-16T08:33:01;9.25;;;2.33;;
63874;SDS011;51595;24.180;-110.296;2022-10-16T08:35:28;13.07;;;3.00;;
63874;SDS011;51595;24.180;-110.296;2022-10-16T08:37:54;6.85;;;2.33;;
63874;SDS011;51595;24.180;-110.296;2022-10-16T08:40:30;10.48;;;2.13;;
63874;SDS011;51595;24.180;-110.296;2022-10-16T08:43:15;9.35;;;2.10;;
63874;SDS011;51595;24.180;-110.296;2022-10-16T08:46:00;7.45;;;2.35;;
63874;SDS011;51595;24.180;-110.296;2022-10-16T08:48:50;7.35;;;2.83;;
63874;SDS011;51595;24.180;-110.296;2022-10-16T08:51:29;7.05;;;2.50;;
63874;SDS011;51595;24.180;-110.296;2022-10-16T08:56:43;9.80;;;2.35;;
63874;SDS011;51595;24.180;-110.296;2022-10-16T08:59:12;10.70;;;2.20;;
63874;SDS011;51595;24.180;-110.296;2022-10-16T09:01:43;8.70;;;2.55;;
63874;SDS011;51595;24.180;-110.296;2022-10-16T09:06:55;12.45;;;2.53;;
63874;SDS011;51595;24.180;-110.296;2022-10-16T09:20:51;6.32;;;2.15;;
63874;SDS011;51595;24.180;-110.296;2022-10-16T09:23:37;9.02;;;2.38;;
63874;SDS011;51595;24.180;-110.296;2022-10-16T09:26:04;8.38;;;2.20;;
63874;SDS011;51595;24.180;-110.296;2022-10-16T09:28:35;12.40;;;2.50;;
63874;SDS011;51595;24.180;-110.296;2022-10-16T09:31:01;8.93;;;2.42;;
63874;SDS011;51595;24.180;-110.296;2022-10-16T09:33:37;15.82;;;2.33;;
63874;SDS011;51595;24.180;-110.296;2022-10-16T09:36:06;15.25;;;2.45;;
63874;SDS011;51595;24.180;-110.296;2022-10-16T09:38:35;15.60;;;2.83;;
63874;SDS011;51595;24.180;-110.296;2022-10-16T09:41:23;8.75;;;2.20;;
63874;SDS011;51595;24.180;-110.296;2022-10-16T09:48:49;8.48;;;2.60;;
63874;SDS011;51595;24.180;-110.296;2022-10-16T09:51:24;11.80;;;3.15;;
63874;SDS011;51595;24.180;-110.296;2022-10-16T09:54:35;6.25;;;2.30;;
63874;SDS011;51595;24.180;-110.296;2022-10-16T09:56:44;18.65;;;2.67;;
63874;SDS011;51595;24.180;-110.296;2022-10-16T09:59:18;9.90;;;2.70;;
63874;SDS011;51595;24.180;-110.296;2022-10-16T10:01:55;9.07;;;2.38;;
63874;SDS011;51595;24.180;-110.296;2022-10-16T10:04:24;13.55;;;2.80;;
63874;SDS011;51595;24.180;-110.296;2022-10-16T10:06:57;13.35;;;2.50;;
63874;SDS011;51595;24.180;-110.296;2022-10-16T10:09:27;9.25;;;2.30;;
63874;SDS011;51595;24.180;-110.296;2022-10-16T10:11:56;18.60;;;2.67;;
63874;SDS011;51595;24.180;-110.296;2022-10-16T10:14:43;16.33;;;3.55;;
63874;SDS011;51595;24.180;-110.296;2022-10-16T10:19:48;11.65;;;2.45;;
63874;SDS011;51595;24.180;-110.296;2022-10-16T10:27:44;8.70;;;2.45;;
63874;SDS011;51595;24.180;-110.296;2022-10-16T10:46:51;14.20;;;2.50;;
63874;SDS011;51595;24.180;-110.296;2022-10-16T10:49:26;7.22;;;2.30;;
63874;SDS011;51595;24.180;-110.296;2022-10-16T10:52:22;9.83;;;3.50;;
63874;SDS011;51595;24.180;-110.296;2022-10-16T11:06:32;5.45;;;2.25;;
63874;SDS011;51595;24.180;-110.296;2022-10-16T11:09:15;8.88;;;2.00;;
63874;SDS011;51595;24.180;-110.296;2022-10-16T11:11:56;7.07;;;2.00;;
63874;SDS011;51595;24.180;-110.296;2022-10-16T11:25:11;10.40;;;2.00;;
63874;SDS011;51595;24.180;-110.296;2022-10-16T11:27:43;9.93;;;2.45;;
63874;SDS011;51595;24.180;-110.296;2022-10-16T11:30:27;8.93;;;2.40;;
63874;SDS011;51595;24.180;-110.296;2022-10-16T11:33:00;11.38;;;2.30;;
63874;SDS011;51595;24.180;-110.296;2022-10-16T11:38:26;13.40;;;2.58;;
63874;SDS011;51595;24.180;-110.296;2022-10-16T11:40:58;11.57;;;2.55;;
63874;SDS011;51595;24.180;-110.296;2022-10-16T11:43:38;5.88;;;2.20;;
63874;SDS011;51595;24.180;-110.296;2022-10-16T11:46:12;12.07;;;3.38;;
63874;SDS011;51595;24.180;-110.296;2022-10-16T11:54:16;7.63;;;2.70;;
63874;SDS011;51595;24.180;-110.296;2022-10-16T11:56:55;11.00;;;2.95;;
63874;SDS011;51595;24.180;-110.296;2022-10-16T11:59:28;8.57;;;2.88;;
63874;SDS011;51595;24.180;-110.296;2022-10-16T12:08:22;7.60;;;2.58;;
63874;SDS011;51595;24.180;-110.296;2022-10-16T12:10:49;10.52;;;2.55;;
63874;SDS011;51595;24.180;-110.296;2022-10-16T12:16:29;9.35;;;2.33;;
63874;SDS011;51595;24.180;-110.296;2022-10-16T12:19:11;8.70;;;2.85;;
63874;SDS011;51595;24.180;-110.296;2022-10-16T12:21:40;7.47;;;2.67;;
63874;SDS011;51595;24.180;-110.296;2022-10-16T12:24:19;9.10;;;2.53;;
63874;SDS011;51595;24.180;-110.296;2022-10-16T12:26:59;9.88;;;2.47;;
63874;SDS011;51595;24.180;-110.296;2022-10-16T12:32:04;10.57;;;3.10;;
63874;SDS011;51595;24.180;-110.296;2022-10-16T12:34:44;7.45;;;2.65;;
63874;SDS011;51595;24.180;-110.296;2022-10-16T12:37:14;11.15;;;2.83;;
63874;SDS011;51595;24.180;-110.296;2022-10-16T12:39:53;9.02;;;2.65;;
63874;SDS011;51595;24.180;-110.296;2022-10-16T12:44:55;9.23;;;2.47;;
63874;SDS011;51595;24.180;-110.296;2022-10-16T12:47:23;11.63;;;2.80;;
63874;SDS011;51595;24.180;-110.296;2022-10-16T12:49:55;16.02;;;2.70;;
63874;SDS011;51595;24.180;-110.296;2022-10-16T12:52:27;12.00;;;2.72;;
63874;SDS011;51595;24.180;-110.296;2022-10-16T12:55:01;11.55;;;3.30;;
63874;SDS011;51595;24.180;-110.296;2022-10-16T12:57:35;13.35;;;3.03;;
63874;SDS011;51595;24.180;-110.296;2022-10-16T13:00:21;12.80;;;2.72;;
63874;SDS011;51595;24.180;-110.296;2022-10-16T13:08:44;15.23;;;2.83;;
63874;SDS011;51595;24.180;-110.296;2022-10-16T13:11:28;10.45;;;2.75;;
63874;SDS011;51595;24.180;-110.296;2022-10-16T13:20:35;6.47;;;2.42;;
63874;SDS011;51595;24.180;-110.296;2022-10-16T13:26:06;12.95;;;2.45;;
63874;SDS011;51595;24.180;-110.296;2022-10-16T13:28:35;13.50;;;3.13;;
63874;SDS011;51595;24.180;-110.296;2022-10-16T13:31:04;13.48;;;2.80;;
63874;SDS011;51595;24.180;-110.296;2022-10-16T13:33:37;11.70;;;2.70;;
63874;SDS011;51595;24.180;-110.296;2022-10-16T13:36:17;13.45;;;2.65;;
63874;SDS011;51595;24.180;-110.296;2022-10-16T13:38:46;11.70;;;2.60;;
63874;SDS011;51595;24.180;-110.296;2022-10-16T13:41:16;12.82;;;2.97;;
63874;SDS011;51595;24.180;-110.296;2022-10-16T13:43:52;13.73;;;2.95;;
63874;SDS011;51595;24.180;-110.296;2022-10-16T13:46:22;8.38;;;2.53;;
63874;SDS011;51595;24.180;-110.296;2022-10-16T13:49:10;21.55;;;3.00;;
63874;SDS011;51595;24.180;-110.296;2022-10-16T13:51:39;8.00;;;2.30;;
63874;SDS011;51595;24.180;-110.296;2022-10-16T13:54:07;9.85;;;2.47;;
63874;SDS011;51595;24.180;-110.296;2022-10-16T13:56:38;8.85;;;2.42;;
63874;SDS011;51595;24.180;-110.296;2022-10-16T13:59:06;7.75;;;2.60;;
63874;SDS011;51595;24.180;-110.296;2022-10-16T14:01:48;9.63;;;2.33;;
63874;SDS011;51595;24.180;-110.296;2022-10-16T14:04:16;13.25;;;3.08;;
63874;SDS011;51595;24.180;-110.296;2022-10-16T14:06:44;10.20;;;2.67;;
63874;SDS011;51595;24.180;-110.296;2022-10-16T14:09:25;18.73;;;3.10;;
63874;SDS011;51595;24.180;-110.296;2022-10-16T14:12:07;14.45;;;2.95;;
63874;SDS011;51595;24.180;-110.296;2022-10-16T14:14:46;13.23;;;3.08;;
63874;SDS011;51595;24.180;-110.296;2022-10-16T14:19:44;13.32;;;3.33;;
63874;SDS011;51595;24.180;-110.296;2022-10-16T14:25:40;12.57;;;2.97;;
63874;SDS011;51595;24.180;-110.296;2022-10-16T14:28:04;13.40;;;3.20;;
63874;SDS011;51595;24.180;-110.296;2022-10-16T14:30:34;12.18;;;3.00;;
63874;SDS011;51595;24.180;-110.296;2022-10-16T14:33:03;12.98;;;3.05;;
63874;SDS011;51595;24.180;-110.296;2022-10-16T14:35:46;9.75;;;3.30;;
63874;SDS011;51595;24.180;-110.296;2022-10-16T14:38:27;16.55;;;3.15;;
63874;SDS011;51595;24.180;-110.296;2022-10-16T14:40:54;19.65;;;3.28;;
63874;SDS011;51595;24.180;-110.296;2022-10-16T14:43:34;13.10;;;3.70;;
63874;SDS011;51595;24.180;-110.296;2022-10-16T14:46:06;16.95;;;3.97;;
63874;SDS011;51595;24.180;-110.296;2022-10-16T14:48:43;19.80;;;3.08;;
63874;SDS011;51595;24.180;-110.296;2022-10-16T14:51:15;14.27;;;3.03;;
63874;SDS011;51595;24.180;-110.296;2022-10-16T14:53:42;15.48;;;3.38;;
63874;SDS011;51595;24.180;-110.296;2022-10-16T14:56:19;15.45;;;3.08;;
63874;SDS011;51595;24.180;-110.296;2022-10-16T14:58:50;15.38;;;3.75;;
63874;SDS011;51595;24.180;-110.296;2022-10-16T15:01:17;10.02;;;2.90;;
63874;SDS011;51595;24.180;-110.296;2022-10-16T15:03:44;16.02;;;2.97;;
63874;SDS011;51595;24.180;-110.296;2022-10-16T15:06:11;15.90;;;3.58;;
63874;SDS011;51595;24.180;-110.296;2022-10-16T15:08:42;19.25;;;2.65;;
63874;SDS011;51595;24.180;-110.296;2022-10-16T15:11:17;16.38;;;2.85;;
63874;SDS011;51595;24.180;-110.296;2022-10-16T15:13:45;22.42;;;3.55;;
63874;SDS011;51595;24.180;-110.296;2022-10-16T15:16:12;17.42;;;3.30;;
63874;SDS011;51595;24.180;-110.296;2022-10-16T15:18:41;12.25;;;2.85;;
63874;SDS011;51595;24.180;-110.296;2022-10-16T15:21:09;9.70;;;2.33;;
63874;SDS011;51595;24.180;-110.296;2022-10-16T15:24:00;13.77;;;2.90;;
63874;SDS011;51595;24.180;-110.296;2022-10-16T15:26:27;11.25;;;2.15;;
63874;SDS011;51595;24.180;-110.296;2022-10-16T15:28:55;14.70;;;2.83;;
63874;SDS011;51595;24.180;-110.296;2022-10-16T15:31:23;8.13;;;2.13;;
63874;SDS011;51595;24.180;-110.296;2022-10-16T15:33:50;12.73;;;2.15;;
63874;SDS011;51595;24.180;-110.296;2022-10-16T15:36:27;12.50;;;1.95;;
63874;SDS011;51595;24.180;-110.296;2022-10-16T15:38:55;9.25;;;2.10;;
63874;SDS011;51595;24.180;-110.296;2022-10-16T15:41:22;14.93;;;2.47;;
63874;SDS011;51595;24.180;-110.296;2022-10-16T15:43:48;18.67;;;2.85;;
63874;SDS011;51595;24.180;-110.296;2022-10-16T15:46:17;8.02;;;1.58;;
63874;SDS011;51595;24.180;-110.296;2022-10-16T15:48:46;11.55;;;2.33;;
63874;SDS011;51595;24.180;-110.296;2022-10-16T15:51:13;13.23;;;2.05;;
63874;SDS011;51595;24.180;-110.296;2022-10-16T15:53:40;9.30;;;2.25;;
63874;SDS011;51595;24.180;-110.296;2022-10-16T15:56:08;7.90;;;2.00;;
63874;SDS011;51595;24.180;-110.296;2022-10-16T15:58:36;10.20;;;2.42;;
63874;SDS011;51595;24.180;-110.296;2022-10-16T16:01:03;5.55;;;1.67;;
63874;SDS011;51595;24.180;-110.296;2022-10-16T16:03:29;12.20;;;1.83;;
63874;SDS011;51595;24.180;-110.296;2022-10-16T16:05:57;11.57;;;1.80;;
63874;SDS011;51595;24.180;-110.296;2022-10-16T16:08:24;7.93;;;2.05;;
63874;SDS011;51595;24.180;-110.296;2022-10-16T16:11:04;6.63;;;1.42;;
63874;SDS011;51595;24.180;-110.296;2022-10-16T16:13:32;3.85;;;1.95;;
63874;SDS011;51595;24.180;-110.296;2022-10-16T16:15:59;5.10;;;1.48;;
63874;SDS011;51595;24.180;-110.296;2022-10-16T16:18:25;3.78;;;1.40;;
63874;SDS011;51595;24.180;-110.296;2022-10-16T16:20:53;6.78;;;1.60;;
63874;SDS011;51595;24.180;-110.296;2022-10-16T16:23:20;7.40;;;1.45;;
63874;SDS011;51595;24.180;-110.296;2022-10-16T16:26:33;3.83;;;1.67;;
63874;SDS011;51595;24.180;-110.296;2022-10-16T16:28:38;3.33;;;1.30;;
63874;SDS011;51595;24.180;-110.296;2022-10-16T16:31:06;2.88;;;1.50;;
63874;SDS011;51595;24.180;-110.296;2022-10-16T16:33:33;3.20;;;1.40;;
63874;SDS011;51595;24.180;-110.296;2022-10-16T16:36:00;5.95;;;1.50;;
63874;SDS011;51595;24.180;-110.296;2022-10-16T16:38:28;6.93;;;1.88;;
63874;SDS011;51595;24.180;-110.296;2022-10-16T16:40:55;7.45;;;1.98;;
63874;SDS011;51595;24.180;-110.296;2022-10-16T16:43:25;5.10;;;1.60;;